sensor_id;sensor_type;location;lat;lon;timestamp;P1;durP1;ratioP1;P2;durP2;ratioP2
29030;SDS011;16122;50.236;11.734;2023-05-29T00:00:50;3.47;;;3.03;;
29030;SDS011;16122;50.236;11.734;2023-05-29T00:03:17;5.37;;;3.40;;
29030;SDS011;16122;50.236;11.734;2023-05-29T00:05:43;5.50;;;3.20;;
29030;SDS011;16122;50.236;11.734;2023-05-29T00:08:09;5.30;;;3.20;;
29030;SDS011;16122;50.236;11.734;2023-05-29T00:10:35;3.90;;;2.77;;
29030;SDS011;16122;50.236;11.734;2023-05-29T00:13:02;3.50;;;3.20;;
29030;SDS011;16122;50.236;11.734;2023-05-29T00:15:28;5.17;;;2.97;;
29030;SDS011;16122;50.236;11.734;2023-05-29T00:17:55;3.90;;;2.73;;
29030;SDS011;16122;50.236;11.734;2023-05-29T00:20:21;4.13;;;2.70;;
29030;SDS011;16122;50.236;11.734;2023-05-29T00:22:47;4.33;;;3.20;;
29030;SDS011;16122;50.236;11.734;2023-05-29T00:25:14;3.43;;;3.13;;
29030;SDS011;16122;50.236;11.734;2023-05-29T00:27:40;4.90;;;3.30;;
29030;SDS011;16122;50.236;11.734;2023-05-29T00:30:07;4.07;;;2.83;;
29030;SDS011;16122;50.236;11.734;2023-05-29T00:32:33;3.40;;;3.10;;
29030;SDS011;16122;50.236;11.734;2023-05-29T00:34:59;3.50;;;3.10;;
29030;SDS011;16122;50.236;11.734;2023-05-29T00:37:25;4.17;;;2.83;;
29030;SDS011;16122;50.236;11.734;2023-05-29T00:39:51;4.30;;;3.40;;
29030;SDS011;16122;50.236;11.734;2023-05-29T00:42:17;3.67;;;3.37;;
29030;SDS011;16122;50.236;11.734;2023-05-29T00:44:42;3.47;;;3.17;;
29030;SDS011;16122;50.236;11.734;2023-05-29T00:47:08;4.97;;;3.43;;
29030;SDS011;16122;50.236;11.734;2023-05-29T00:49:35;4.83;;;2.80;;
29030;SDS011;16122;50.236;11.734;2023-05-29T00:52:02;4.40;;;3.80;;
29030;SDS011;16122;50.236;11.734;2023-05-29T00:54:30;3.53;;;2.80;;
29030;SDS011;16122;50.236;11.734;2023-05-29T00:56:57;3.13;;;2.83;;
29030;SDS011;16122;50.236;11.734;2023-05-29T00:59:24;3.70;;;2.60;;
29030;SDS011;16122;50.236;11.734;2023-05-29T01:01:52;4.37;;;2.70;;
29030;SDS011;16122;50.236;11.734;2023-05-29T01:04:19;3.67;;;3.20;;
29030;SDS011;16122;50.236;11.734;2023-05-29T01:06:46;4.77;;;3.30;;
29030;SDS011;16122;50.236;11.734;2023-05-29T01:09:12;3.07;;;2.77;;
29030;SDS011;16122;50.236;11.734;2023-05-29T01:12:03;3.33;;;3.03;;
29030;SDS011;16122;50.236;11.734;2023-05-29T01:17:51;4.90;;;3.67;;
29030;SDS011;16122;50.236;11.734;2023-05-29T01:22:53;4.40;;;3.20;;
29030;SDS011;16122;50.236;11.734;2023-05-29T01:25:58;3.87;;;3.30;;
29030;SDS011;16122;50.236;11.734;2023-05-29T01:28:47;2.80;;;2.60;;
29030;SDS011;16122;50.236;11.734;2023-05-29T01:31:16;3.27;;;2.57;;
29030;SDS011;16122;50.236;11.734;2023-05-29T01:33:51;5.33;;;3.30;;
29030;SDS011;16122;50.236;11.734;2023-05-29T01:36:21;4.50;;;3.20;;
29030;SDS011;16122;50.236;11.734;2023-05-29T01:38:48;3.90;;;3.33;;
29030;SDS011;16122;50.236;11.734;2023-05-29T01:41:16;3.63;;;3.20;;
29030;SDS011;16122;50.236;11.734;2023-05-29T01:43:45;4.60;;;3.53;;
29030;SDS011;16122;50.236;11.734;2023-05-29T01:46:13;4.20;;;3.20;;
29030;SDS011;16122;50.236;11.734;2023-05-29T01:48:43;5.40;;;3.33;;
29030;SDS011;16122;50.236;11.734;2023-05-29T01:51:10;5.47;;;3.43;;
29030;SDS011;16122;50.236;11.734;2023-05-29T01:53:37;3.40;;;3.10;;
29030;SDS011;16122;50.236;11.734;2023-05-29T01:56:04;3.53;;;3.23;;
29030;SDS011;16122;50.236;11.734;2023-05-29T01:58:31;5.67;;;4.30;;
29030;SDS011;16122;50.236;11.734;2023-05-29T02:00:58;3.27;;;2.93;;
29030;SDS011;16122;50.236;11.734;2023-05-29T02:03:25;4.23;;;3.50;;
29030;SDS011;16122;50.236;11.734;2023-05-29T02:05:54;4.50;;;3.20;;
29030;SDS011;16122;50.236;11.734;2023-05-29T02:08:23;4.33;;;3.57;;
29030;SDS011;16122;50.236;11.734;2023-05-29T02:10:49;4.00;;;3.33;;
29030;SDS011;16122;50.236;11.734;2023-05-29T02:13:15;5.87;;;3.70;;
29030;SDS011;16122;50.236;11.734;2023-05-29T02:15:42;4.60;;;3.40;;
29030;SDS011;16122;50.236;11.734;2023-05-29T02:18:10;4.00;;;2.90;;
29030;SDS011;16122;50.236;11.734;2023-05-29T02:20:38;4.20;;;3.27;;
29030;SDS011;16122;50.236;11.734;2023-05-29T02:23:04;4.00;;;3.60;;
29030;SDS011;16122;50.236;11.734;2023-05-29T02:25:30;3.73;;;3.33;;
29030;SDS011;16122;50.236;11.734;2023-05-29T02:27:58;4.90;;;3.90;;
29030;SDS011;16122;50.236;11.734;2023-05-29T02:30:24;4.97;;;3.30;;
29030;SDS011;16122;50.236;11.734;2023-05-29T02:32:49;3.80;;;3.50;;
29030;SDS011;16122;50.236;11.734;2023-05-29T02:35:16;3.23;;;2.93;;
29030;SDS011;16122;50.236;11.734;2023-05-29T02:37:45;7.83;;;3.13;;
29030;SDS011;16122;50.236;11.734;2023-05-29T02:40:14;3.63;;;3.33;;
29030;SDS011;16122;50.236;11.734;2023-05-29T02:42:40;3.63;;;3.33;;
29030;SDS011;16122;50.236;11.734;2023-05-29T02:45:06;3.50;;;3.17;;
29030;SDS011;16122;50.236;11.734;2023-05-29T02:47:33;6.07;;;3.90;;
29030;SDS011;16122;50.236;11.734;2023-05-29T02:49:58;3.00;;;2.80;;
29030;SDS011;16122;50.236;11.734;2023-05-29T02:52:24;4.27;;;3.27;;
29030;SDS011;16122;50.236;11.734;2023-05-29T02:54:50;3.60;;;3.27;;
29030;SDS011;16122;50.236;11.734;2023-05-29T02:57:16;6.40;;;3.60;;
29030;SDS011;16122;50.236;11.734;2023-05-29T02:59:42;4.93;;;3.80;;
29030;SDS011;16122;50.236;11.734;2023-05-29T03:02:09;4.13;;;3.10;;
29030;SDS011;16122;50.236;11.734;2023-05-29T03:04:35;3.90;;;3.50;;
29030;SDS011;16122;50.236;11.734;2023-05-29T03:07:01;3.50;;;3.20;;
29030;SDS011;16122;50.236;11.734;2023-05-29T03:09:29;4.00;;;3.50;;
29030;SDS011;16122;50.236;11.734;2023-05-29T03:11:56;4.57;;;3.23;;
29030;SDS011;16122;50.236;11.734;2023-05-29T03:14:21;4.47;;;3.80;;
29030;SDS011;16122;50.236;11.734;2023-05-29T03:16:48;4.33;;;3.43;;
29030;SDS011;16122;50.236;11.734;2023-05-29T03:19:14;3.20;;;2.80;;
29030;SDS011;16122;50.236;11.734;2023-05-29T03:21:40;3.80;;;3.40;;
29030;SDS011;16122;50.236;11.734;2023-05-29T03:24:06;5.93;;;3.53;;
29030;SDS011;16122;50.236;11.734;2023-05-29T03:26:34;4.20;;;3.47;;
29030;SDS011;16122;50.236;11.734;2023-05-29T03:29:01;3.70;;;3.37;;
29030;SDS011;16122;50.236;11.734;2023-05-29T03:31:29;3.50;;;3.00;;
29030;SDS011;16122;50.236;11.734;2023-05-29T03:33:55;4.43;;;3.23;;
29030;SDS011;16122;50.236;11.734;2023-05-29T03:36:27;3.37;;;3.07;;
29030;SDS011;16122;50.236;11.734;2023-05-29T03:38:53;3.70;;;3.27;;
29030;SDS011;16122;50.236;11.734;2023-05-29T03:41:19;3.93;;;3.00;;
29030;SDS011;16122;50.236;11.734;2023-05-29T03:43:45;3.23;;;2.93;;
29030;SDS011;16122;50.236;11.734;2023-05-29T03:46:12;3.60;;;2.97;;
29030;SDS011;16122;50.236;11.734;2023-05-29T03:48:38;3.80;;;3.47;;
29030;SDS011;16122;50.236;11.734;2023-05-29T03:51:04;4.37;;;3.30;;
29030;SDS011;16122;50.236;11.734;2023-05-29T03:53:34;4.00;;;3.40;;
29030;SDS011;16122;50.236;11.734;2023-05-29T03:56:00;4.10;;;3.70;;
29030;SDS011;16122;50.236;11.734;2023-05-29T03:58:26;5.10;;;3.53;;
29030;SDS011;16122;50.236;11.734;2023-05-29T04:00:52;3.67;;;3.30;;
29030;SDS011;16122;50.236;11.734;2023-05-29T04:03:20;3.57;;;3.10;;
29030;SDS011;16122;50.236;11.734;2023-05-29T04:05:47;3.07;;;2.83;;
29030;SDS011;16122;50.236;11.734;2023-05-29T04:08:13;3.83;;;3.43;;
29030;SDS011;16122;50.236;11.734;2023-05-29T04:10:39;3.63;;;3.33;;
29030;SDS011;16122;50.236;11.734;2023-05-29T04:13:05;4.73;;;3.63;;
29030;SDS011;16122;50.236;11.734;2023-05-29T04:15:34;4.03;;;3.10;;
29030;SDS011;16122;50.236;11.734;2023-05-29T04:17:59;3.97;;;3.10;;
29030;SDS011;16122;50.236;11.734;2023-05-29T04:20:25;5.83;;;3.73;;
29030;SDS011;16122;50.236;11.734;2023-05-29T04:22:51;4.67;;;3.97;;
29030;SDS011;16122;50.236;11.734;2023-05-29T04:25:18;5.20;;;3.50;;
29030;SDS011;16122;50.236;11.734;2023-05-29T04:27:44;4.17;;;3.77;;
29030;SDS011;16122;50.236;11.734;2023-05-29T04:30:17;6.20;;;4.20;;
29030;SDS011;16122;50.236;11.734;2023-05-29T04:32:45;3.80;;;3.40;;
29030;SDS011;16122;50.236;11.734;2023-05-29T04:35:12;5.60;;;4.10;;
29030;SDS011;16122;50.236;11.734;2023-05-29T04:37:44;4.80;;;3.37;;
29030;SDS011;16122;50.236;11.734;2023-05-29T04:40:12;8.50;;;4.00;;
29030;SDS011;16122;50.236;11.734;2023-05-29T04:42:43;5.07;;;3.83;;
29030;SDS011;16122;50.236;11.734;2023-05-29T04:45:12;6.13;;;3.43;;
29030;SDS011;16122;50.236;11.734;2023-05-29T04:47:39;6.70;;;3.93;;
29030;SDS011;16122;50.236;11.734;2023-05-29T04:50:13;8.50;;;4.07;;
29030;SDS011;16122;50.236;11.734;2023-05-29T04:52:42;4.07;;;3.40;;
29030;SDS011;16122;50.236;11.734;2023-05-29T04:55:09;6.53;;;3.40;;
29030;SDS011;16122;50.236;11.734;2023-05-29T04:57:36;3.53;;;3.23;;
29030;SDS011;16122;50.236;11.734;2023-05-29T05:00:03;5.80;;;4.00;;
29030;SDS011;16122;50.236;11.734;2023-05-29T05:02:36;6.63;;;3.63;;
29030;SDS011;16122;50.236;11.734;2023-05-29T05:05:02;4.70;;;4.00;;
29030;SDS011;16122;50.236;11.734;2023-05-29T05:07:28;4.50;;;3.40;;
29030;SDS011;16122;50.236;11.734;2023-05-29T05:09:53;6.03;;;4.03;;
29030;SDS011;16122;50.236;11.734;2023-05-29T05:12:25;6.80;;;3.30;;
29030;SDS011;16122;50.236;11.734;2023-05-29T05:14:51;6.10;;;3.63;;
29030;SDS011;16122;50.236;11.734;2023-05-29T05:17:17;6.40;;;3.80;;
29030;SDS011;16122;50.236;11.734;2023-05-29T05:19:42;4.07;;;3.50;;
29030;SDS011;16122;50.236;11.734;2023-05-29T05:22:08;6.23;;;4.07;;
29030;SDS011;16122;50.236;11.734;2023-05-29T05:24:34;7.80;;;4.07;;
29030;SDS011;16122;50.236;11.734;2023-05-29T05:27:01;4.73;;;3.50;;
29030;SDS011;16122;50.236;11.734;2023-05-29T05:29:28;5.53;;;4.00;;
29030;SDS011;16122;50.236;11.734;2023-05-29T05:31:56;5.30;;;4.40;;
29030;SDS011;16122;50.236;11.734;2023-05-29T05:34:23;5.30;;;3.97;;
29030;SDS011;16122;50.236;11.734;2023-05-29T05:36:48;6.17;;;4.50;;
29030;SDS011;16122;50.236;11.734;2023-05-29T05:39:14;5.20;;;4.07;;
29030;SDS011;16122;50.236;11.734;2023-05-29T05:41:44;4.73;;;3.37;;
29030;SDS011;16122;50.236;11.734;2023-05-29T05:44:13;6.07;;;4.00;;
29030;SDS011;16122;50.236;11.734;2023-05-29T05:46:43;7.77;;;4.30;;
29030;SDS011;16122;50.236;11.734;2023-05-29T05:49:10;5.60;;;3.90;;
29030;SDS011;16122;50.236;11.734;2023-05-29T05:51:37;5.33;;;3.83;;
29030;SDS011;16122;50.236;11.734;2023-05-29T05:54:02;5.53;;;3.70;;
29030;SDS011;16122;50.236;11.734;2023-05-29T05:56:31;8.07;;;4.53;;
29030;SDS011;16122;50.236;11.734;2023-05-29T05:58:57;7.30;;;4.10;;
29030;SDS011;16122;50.236;11.734;2023-05-29T06:01:23;6.57;;;3.60;;
29030;SDS011;16122;50.236;11.734;2023-05-29T06:03:50;5.40;;;3.90;;
29030;SDS011;16122;50.236;11.734;2023-05-29T06:06:16;10.27;;;4.60;;
29030;SDS011;16122;50.236;11.734;2023-05-29T06:08:44;7.97;;;4.30;;
29030;SDS011;16122;50.236;11.734;2023-05-29T06:11:11;10.30;;;5.07;;
29030;SDS011;16122;50.236;11.734;2023-05-29T06:13:40;7.93;;;4.30;;
29030;SDS011;16122;50.236;11.734;2023-05-29T06:16:15;12.50;;;4.63;;
29030;SDS011;16122;50.236;11.734;2023-05-29T06:18:42;9.30;;;4.93;;
29030;SDS011;16122;50.236;11.734;2023-05-29T06:21:07;7.03;;;4.50;;
29030;SDS011;16122;50.236;11.734;2023-05-29T06:23:37;7.83;;;4.70;;
29030;SDS011;16122;50.236;11.734;2023-05-29T06:26:03;9.70;;;4.97;;
29030;SDS011;16122;50.236;11.734;2023-05-29T06:28:29;9.40;;;4.90;;
29030;SDS011;16122;50.236;11.734;2023-05-29T06:30:55;7.57;;;4.70;;
29030;SDS011;16122;50.236;11.734;2023-05-29T06:33:22;8.07;;;4.90;;
29030;SDS011;16122;50.236;11.734;2023-05-29T06:35:49;12.57;;;5.23;;
29030;SDS011;16122;50.236;11.734;2023-05-29T06:38:15;10.80;;;5.43;;
29030;SDS011;16122;50.236;11.734;2023-05-29T06:40:41;11.20;;;5.50;;
29030;SDS011;16122;50.236;11.734;2023-05-29T06:43:07;15.53;;;5.47;;
29030;SDS011;16122;50.236;11.734;2023-05-29T06:45:38;12.90;;;5.67;;
29030;SDS011;16122;50.236;11.734;2023-05-29T06:48:04;11.20;;;5.17;;
29030;SDS011;16122;50.236;11.734;2023-05-29T06:50:30;10.07;;;5.50;;
29030;SDS011;16122;50.236;11.734;2023-05-29T06:53:04;10.57;;;5.40;;
29030;SDS011;16122;50.236;11.734;2023-05-29T06:55:49;13.90;;;5.77;;
29030;SDS011;16122;50.236;11.734;2023-05-29T06:58:16;10.07;;;5.00;;
29030;SDS011;16122;50.236;11.734;2023-05-29T07:00:42;7.00;;;4.97;;
29030;SDS011;16122;50.236;11.734;2023-05-29T07:03:40;10.00;;;5.13;;
29030;SDS011;16122;50.236;11.734;2023-05-29T07:06:06;11.13;;;4.80;;
29030;SDS011;16122;50.236;11.734;2023-05-29T07:08:32;10.30;;;4.70;;
29030;SDS011;16122;50.236;11.734;2023-05-29T07:10:58;8.20;;;5.10;;
29030;SDS011;16122;50.236;11.734;2023-05-29T07:13:24;13.03;;;4.70;;
29030;SDS011;16122;50.236;11.734;2023-05-29T07:15:50;10.20;;;4.87;;
29030;SDS011;16122;50.236;11.734;2023-05-29T07:18:20;13.67;;;5.43;;
29030;SDS011;16122;50.236;11.734;2023-05-29T07:20:46;8.87;;;4.67;;
29030;SDS011;16122;50.236;11.734;2023-05-29T07:23:16;8.03;;;4.20;;
29030;SDS011;16122;50.236;11.734;2023-05-29T07:25:41;6.83;;;4.57;;
29030;SDS011;16122;50.236;11.734;2023-05-29T07:28:08;9.07;;;4.33;;
29030;SDS011;16122;50.236;11.734;2023-05-29T07:30:35;13.23;;;4.97;;
29030;SDS011;16122;50.236;11.734;2023-05-29T07:33:02;11.03;;;4.50;;
29030;SDS011;16122;50.236;11.734;2023-05-29T07:35:28;12.00;;;4.30;;
29030;SDS011;16122;50.236;11.734;2023-05-29T07:37:54;5.83;;;4.13;;
29030;SDS011;16122;50.236;11.734;2023-05-29T07:40:22;13.83;;;4.50;;
29030;SDS011;16122;50.236;11.734;2023-05-29T07:43:09;11.17;;;5.90;;
29030;SDS011;16122;50.236;11.734;2023-05-29T07:45:53;7.97;;;4.97;;
29030;SDS011;16122;50.236;11.734;2023-05-29T07:48:19;7.63;;;4.13;;
29030;SDS011;16122;50.236;11.734;2023-05-29T07:50:46;6.23;;;3.50;;
29030;SDS011;16122;50.236;11.734;2023-05-29T07:53:14;8.27;;;3.90;;
29030;SDS011;16122;50.236;11.734;2023-05-29T07:55:40;7.50;;;4.33;;
29030;SDS011;16122;50.236;11.734;2023-05-29T07:58:06;10.93;;;4.70;;
29030;SDS011;16122;50.236;11.734;2023-05-29T08:00:32;9.90;;;4.47;;
29030;SDS011;16122;50.236;11.734;2023-05-29T08:03:00;5.13;;;3.77;;
29030;SDS011;16122;50.236;11.734;2023-05-29T08:05:31;9.50;;;3.83;;
29030;SDS011;16122;50.236;11.734;2023-05-29T08:07:58;6.80;;;3.20;;
29030;SDS011;16122;50.236;11.734;2023-05-29T08:10:25;5.00;;;3.67;;
29030;SDS011;16122;50.236;11.734;2023-05-29T08:12:51;8.90;;;3.90;;
29030;SDS011;16122;50.236;11.734;2023-05-29T08:15:19;6.20;;;3.77;;
29030;SDS011;16122;50.236;11.734;2023-05-29T08:17:44;9.10;;;4.07;;
29030;SDS011;16122;50.236;11.734;2023-05-29T08:20:10;7.10;;;3.83;;
29030;SDS011;16122;50.236;11.734;2023-05-29T08:22:36;5.20;;;3.63;;
29030;SDS011;16122;50.236;11.734;2023-05-29T08:25:02;10.40;;;4.37;;
29030;SDS011;16122;50.236;11.734;2023-05-29T08:27:28;9.77;;;4.30;;
29030;SDS011;16122;50.236;11.734;2023-05-29T08:29:54;6.60;;;3.70;;
29030;SDS011;16122;50.236;11.734;2023-05-29T08:32:20;6.60;;;4.37;;
29030;SDS011;16122;50.236;11.734;2023-05-29T08:34:46;6.63;;;3.57;;
29030;SDS011;16122;50.236;11.734;2023-05-29T08:37:13;8.90;;;4.10;;
29030;SDS011;16122;50.236;11.734;2023-05-29T08:39:39;6.30;;;3.80;;
29030;SDS011;16122;50.236;11.734;2023-05-29T08:42:07;8.77;;;4.73;;
29030;SDS011;16122;50.236;11.734;2023-05-29T08:44:36;5.70;;;3.90;;
29030;SDS011;16122;50.236;11.734;2023-05-29T08:47:06;7.73;;;4.07;;
29030;SDS011;16122;50.236;11.734;2023-05-29T08:49:42;4.47;;;3.40;;
29030;SDS011;16122;50.236;11.734;2023-05-29T08:52:15;6.47;;;3.90;;
29030;SDS011;16122;50.236;11.734;2023-05-29T08:54:43;7.93;;;3.73;;
29030;SDS011;16122;50.236;11.734;2023-05-29T08:57:10;4.60;;;3.23;;
29030;SDS011;16122;50.236;11.734;2023-05-29T08:59:37;5.67;;;3.60;;
29030;SDS011;16122;50.236;11.734;2023-05-29T09:02:06;5.87;;;3.40;;
29030;SDS011;16122;50.236;11.734;2023-05-29T09:04:32;6.57;;;3.80;;
29030;SDS011;16122;50.236;11.734;2023-05-29T09:06:59;7.13;;;3.33;;
29030;SDS011;16122;50.236;11.734;2023-05-29T09:09:28;6.70;;;3.87;;
29030;SDS011;16122;50.236;11.734;2023-05-29T09:11:57;5.93;;;4.07;;
29030;SDS011;16122;50.236;11.734;2023-05-29T09:14:36;7.23;;;4.03;;
29030;SDS011;16122;50.236;11.734;2023-05-29T09:17:03;8.60;;;4.50;;
29030;SDS011;16122;50.236;11.734;2023-05-29T09:19:30;5.43;;;3.40;;
29030;SDS011;16122;50.236;11.734;2023-05-29T09:22:07;5.20;;;4.27;;
29030;SDS011;16122;50.236;11.734;2023-05-29T09:24:46;7.57;;;4.07;;
29030;SDS011;16122;50.236;11.734;2023-05-29T09:27:13;10.97;;;3.70;;
29030;SDS011;16122;50.236;11.734;2023-05-29T09:29:40;9.27;;;4.30;;
29030;SDS011;16122;50.236;11.734;2023-05-29T09:32:07;14.13;;;4.07;;
29030;SDS011;16122;50.236;11.734;2023-05-29T09:34:34;6.87;;;3.87;;
29030;SDS011;16122;50.236;11.734;2023-05-29T09:37:04;8.80;;;3.50;;
29030;SDS011;16122;50.236;11.734;2023-05-29T09:42:13;3.90;;;3.47;;
29030;SDS011;16122;50.236;11.734;2023-05-29T09:44:40;7.20;;;3.70;;
29030;SDS011;16122;50.236;11.734;2023-05-29T09:47:06;3.67;;;3.07;;
29030;SDS011;16122;50.236;11.734;2023-05-29T09:49:32;5.10;;;2.97;;
29030;SDS011;16122;50.236;11.734;2023-05-29T09:51:58;5.87;;;3.50;;
29030;SDS011;16122;50.236;11.734;2023-05-29T09:54:28;3.77;;;3.17;;
29030;SDS011;16122;50.236;11.734;2023-05-29T09:56:55;4.27;;;3.87;;
29030;SDS011;16122;50.236;11.734;2023-05-29T09:59:23;8.20;;;3.90;;
29030;SDS011;16122;50.236;11.734;2023-05-29T10:02:02;8.73;;;3.23;;
29030;SDS011;16122;50.236;11.734;2023-05-29T10:04:32;3.83;;;2.87;;
29030;SDS011;16122;50.236;11.734;2023-05-29T10:07:07;4.30;;;3.20;;
29030;SDS011;16122;50.236;11.734;2023-05-29T10:09:36;4.80;;;3.33;;
29030;SDS011;16122;50.236;11.734;2023-05-29T10:12:08;4.40;;;3.43;;
29030;SDS011;16122;50.236;11.734;2023-05-29T10:14:38;8.57;;;4.00;;
29030;SDS011;16122;50.236;11.734;2023-05-29T10:17:07;9.77;;;3.27;;
29030;SDS011;16122;50.236;11.734;2023-05-29T10:19:35;6.30;;;3.83;;
29030;SDS011;16122;50.236;11.734;2023-05-29T10:22:03;3.97;;;3.57;;
29030;SDS011;16122;50.236;11.734;2023-05-29T10:24:33;10.00;;;3.30;;
29030;SDS011;16122;50.236;11.734;2023-05-29T10:27:02;3.90;;;3.40;;
29030;SDS011;16122;50.236;11.734;2023-05-29T10:29:37;4.97;;;2.90;;
29030;SDS011;16122;50.236;11.734;2023-05-29T10:32:32;9.30;;;3.20;;
29030;SDS011;16122;50.236;11.734;2023-05-29T10:35:22;5.33;;;3.60;;
29030;SDS011;16122;50.236;11.734;2023-05-29T10:38:14;8.90;;;4.23;;
29030;SDS011;16122;50.236;11.734;2023-05-29T10:40:42;9.23;;;3.60;;
29030;SDS011;16122;50.236;11.734;2023-05-29T10:43:08;3.90;;;2.70;;
29030;SDS011;16122;50.236;11.734;2023-05-29T10:50:37;6.60;;;3.70;;
29030;SDS011;16122;50.236;11.734;2023-05-29T10:53:06;3.97;;;3.17;;
29030;SDS011;16122;50.236;11.734;2023-05-29T10:55:36;5.60;;;3.37;;
29030;SDS011;16122;50.236;11.734;2023-05-29T10:58:12;6.43;;;3.33;;
29030;SDS011;16122;50.236;11.734;2023-05-29T11:00:40;7.33;;;3.37;;
29030;SDS011;16122;50.236;11.734;2023-05-29T11:03:11;5.47;;;2.90;;
29030;SDS011;16122;50.236;11.734;2023-05-29T11:05:58;2.93;;;2.57;;
29030;SDS011;16122;50.236;11.734;2023-05-29T11:08:42;7.20;;;3.07;;
29030;SDS011;16122;50.236;11.734;2023-05-29T11:11:11;7.93;;;3.17;;
29030;SDS011;16122;50.236;11.734;2023-05-29T11:13:38;4.23;;;3.03;;
29030;SDS011;16122;50.236;11.734;2023-05-29T11:16:10;9.80;;;3.53;;
29030;SDS011;16122;50.236;11.734;2023-05-29T11:18:43;5.40;;;3.27;;
29030;SDS011;16122;50.236;11.734;2023-05-29T11:21:33;8.37;;;3.83;;
29030;SDS011;16122;50.236;11.734;2023-05-29T11:24:06;4.23;;;2.67;;
29030;SDS011;16122;50.236;11.734;2023-05-29T11:26:33;6.00;;;3.50;;
29030;SDS011;16122;50.236;11.734;2023-05-29T11:29:04;4.03;;;3.13;;
29030;SDS011;16122;50.236;11.734;2023-05-29T11:31:32;5.47;;;3.07;;
29030;SDS011;16122;50.236;11.734;2023-05-29T11:34:00;5.17;;;3.10;;
29030;SDS011;16122;50.236;11.734;2023-05-29T11:36:30;7.20;;;3.97;;
29030;SDS011;16122;50.236;11.734;2023-05-29T11:39:00;5.10;;;3.40;;
29030;SDS011;16122;50.236;11.734;2023-05-29T11:41:27;7.67;;;3.57;;
29030;SDS011;16122;50.236;11.734;2023-05-29T11:43:56;6.93;;;3.60;;
29030;SDS011;16122;50.236;11.734;2023-05-29T11:46:30;5.77;;;3.63;;
29030;SDS011;16122;50.236;11.734;2023-05-29T11:48:57;10.80;;;5.17;;
29030;SDS011;16122;50.236;11.734;2023-05-29T11:51:24;4.00;;;3.60;;
29030;SDS011;16122;50.236;11.734;2023-05-29T11:53:50;6.57;;;3.87;;
29030;SDS011;16122;50.236;11.734;2023-05-29T11:56:23;5.53;;;3.63;;
29030;SDS011;16122;50.236;11.734;2023-05-29T11:58:52;4.63;;;3.87;;
29030;SDS011;16122;50.236;11.734;2023-05-29T12:01:20;10.30;;;3.53;;
29030;SDS011;16122;50.236;11.734;2023-05-29T12:03:46;3.60;;;3.13;;
29030;SDS011;16122;50.236;11.734;2023-05-29T12:06:12;5.40;;;3.60;;
29030;SDS011;16122;50.236;11.734;2023-05-29T12:08:38;4.97;;;3.13;;
29030;SDS011;16122;50.236;11.734;2023-05-29T12:11:04;4.50;;;3.63;;
29030;SDS011;16122;50.236;11.734;2023-05-29T12:13:31;5.30;;;3.67;;
29030;SDS011;16122;50.236;11.734;2023-05-29T12:15:58;5.23;;;4.00;;
29030;SDS011;16122;50.236;11.734;2023-05-29T12:18:28;5.97;;;4.30;;
29030;SDS011;16122;50.236;11.734;2023-05-29T12:20:58;4.40;;;3.47;;
29030;SDS011;16122;50.236;11.734;2023-05-29T12:23:29;4.13;;;3.13;;
29030;SDS011;16122;50.236;11.734;2023-05-29T12:25:55;4.20;;;3.40;;
29030;SDS011;16122;50.236;11.734;2023-05-29T12:28:22;5.33;;;3.50;;
29030;SDS011;16122;50.236;11.734;2023-05-29T12:30:48;4.70;;;4.03;;
29030;SDS011;16122;50.236;11.734;2023-05-29T12:33:30;3.23;;;2.93;;
29030;SDS011;16122;50.236;11.734;2023-05-29T12:36:07;3.93;;;3.00;;
29030;SDS011;16122;50.236;11.734;2023-05-29T12:38:47;5.83;;;3.30;;
29030;SDS011;16122;50.236;11.734;2023-05-29T12:41:33;5.20;;;3.07;;
29030;SDS011;16122;50.236;11.734;2023-05-29T12:44:01;8.20;;;3.80;;
29030;SDS011;16122;50.236;11.734;2023-05-29T12:46:34;4.00;;;3.20;;
29030;SDS011;16122;50.236;11.734;2023-05-29T12:49:11;3.93;;;3.57;;
29030;SDS011;16122;50.236;11.734;2023-05-29T12:51:44;6.17;;;3.27;;
29030;SDS011;16122;50.236;11.734;2023-05-29T12:54:11;5.30;;;3.10;;
29030;SDS011;16122;50.236;11.734;2023-05-29T12:56:38;4.40;;;3.30;;
29030;SDS011;16122;50.236;11.734;2023-05-29T12:59:08;5.57;;;3.00;;
29030;SDS011;16122;50.236;11.734;2023-05-29T13:01:35;3.70;;;3.30;;
29030;SDS011;16122;50.236;11.734;2023-05-29T13:04:05;3.27;;;2.97;;
29030;SDS011;16122;50.236;11.734;2023-05-29T13:06:37;6.70;;;3.47;;
29030;SDS011;16122;50.236;11.734;2023-05-29T13:09:03;4.50;;;3.10;;
29030;SDS011;16122;50.236;11.734;2023-05-29T13:11:30;5.53;;;3.27;;
29030;SDS011;16122;50.236;11.734;2023-05-29T13:13:56;3.70;;;3.30;;
29030;SDS011;16122;50.236;11.734;2023-05-29T13:16:22;3.50;;;2.57;;
29030;SDS011;16122;50.236;11.734;2023-05-29T13:18:48;3.00;;;2.70;;
29030;SDS011;16122;50.236;11.734;2023-05-29T13:21:14;3.30;;;2.50;;
29030;SDS011;16122;50.236;11.734;2023-05-29T13:23:40;3.23;;;2.60;;
29030;SDS011;16122;50.236;11.734;2023-05-29T13:26:05;3.23;;;2.93;;
29030;SDS011;16122;50.236;11.734;2023-05-29T13:28:32;3.90;;;2.97;;
29030;SDS011;16122;50.236;11.734;2023-05-29T13:30:58;3.30;;;2.90;;
29030;SDS011;16122;50.236;11.734;2023-05-29T13:33:24;4.20;;;3.20;;
29030;SDS011;16122;50.236;11.734;2023-05-29T13:35:50;2.83;;;2.60;;
29030;SDS011;16122;50.236;11.734;2023-05-29T13:38:16;3.83;;;2.93;;
29030;SDS011;16122;50.236;11.734;2023-05-29T13:40:42;3.60;;;3.23;;
29030;SDS011;16122;50.236;11.734;2023-05-29T13:43:08;3.47;;;3.10;;
29030;SDS011;16122;50.236;11.734;2023-05-29T13:45:34;3.03;;;2.33;;
29030;SDS011;16122;50.236;11.734;2023-05-29T13:47:59;4.50;;;2.93;;
29030;SDS011;16122;50.236;11.734;2023-05-29T13:50:25;2.57;;;2.37;;
29030;SDS011;16122;50.236;11.734;2023-05-29T13:52:52;3.57;;;3.17;;
29030;SDS011;16122;50.236;11.734;2023-05-29T13:55:18;3.93;;;2.70;;
29030;SDS011;16122;50.236;11.734;2023-05-29T13:57:44;3.53;;;2.70;;
29030;SDS011;16122;50.236;11.734;2023-05-29T14:00:10;3.47;;;2.90;;
29030;SDS011;16122;50.236;11.734;2023-05-29T14:02:36;4.03;;;3.10;;
29030;SDS011;16122;50.236;11.734;2023-05-29T14:05:02;3.63;;;2.77;;
29030;SDS011;16122;50.236;11.734;2023-05-29T14:07:29;3.37;;;2.73;;
29030;SDS011;16122;50.236;11.734;2023-05-29T14:09:55;3.20;;;2.90;;
29030;SDS011;16122;50.236;11.734;2023-05-29T14:12:21;2.70;;;2.50;;
29030;SDS011;16122;50.236;11.734;2023-05-29T14:14:47;3.03;;;2.53;;
29030;SDS011;16122;50.236;11.734;2023-05-29T14:17:13;3.10;;;2.80;;
29030;SDS011;16122;50.236;11.734;2023-05-29T14:19:39;5.13;;;2.53;;
29030;SDS011;16122;50.236;11.734;2023-05-29T14:22:05;2.60;;;2.40;;
29030;SDS011;16122;50.236;11.734;2023-05-29T14:24:31;3.63;;;2.80;;
29030;SDS011;16122;50.236;11.734;2023-05-29T14:26:57;4.47;;;2.30;;
29030;SDS011;16122;50.236;11.734;2023-05-29T14:29:23;2.80;;;2.60;;
29030;SDS011;16122;50.236;11.734;2023-05-29T14:31:49;3.67;;;2.70;;
29030;SDS011;16122;50.236;11.734;2023-05-29T14:34:14;3.00;;;2.70;;
29030;SDS011;16122;50.236;11.734;2023-05-29T14:36:40;2.90;;;2.60;;
29030;SDS011;16122;50.236;11.734;2023-05-29T14:39:09;4.50;;;2.37;;
29030;SDS011;16122;50.236;11.734;2023-05-29T14:41:35;3.03;;;2.63;;
29030;SDS011;16122;50.236;11.734;2023-05-29T14:44:01;3.20;;;2.90;;
29030;SDS011;16122;50.236;11.734;2023-05-29T14:46:27;2.57;;;2.37;;
29030;SDS011;16122;50.236;11.734;2023-05-29T14:48:56;2.57;;;2.20;;
29030;SDS011;16122;50.236;11.734;2023-05-29T14:51:23;2.50;;;2.30;;
29030;SDS011;16122;50.236;11.734;2023-05-29T14:53:49;2.63;;;2.43;;